Time;durP1;ratioP1;P1;durP2;ratioP2;P2;SDS_P1;SDS_P2;PMS_P1;PMS_P2;Temp;Humidity;BMP_temperature;BMP_pressure;BME280_temperature;BME280_humidity;BME280_pressure;Samples;Min_cycle;Max_cycle;Signal;HPM_P1;HPM_P2
2021/10/31 00:01:54;;;;;;;;;;;;;;;19.04;61.48;101793.94;5032881;28;1948;-44
2021/10/31 00:04:21;;;;;;;;;;;;;;;19.01;61.68;101767.34;5033674;28;1906;-46
2021/10/31 00:06:47;;;;;;;;;;;;;;;19.02;60.97;101766.38;5033437;28;1495;-44
2021/10/31 00:09:15;;;;;;;;;;;;;;;19.01;61.21;101778.06;5033150;28;1952;-44
2021/10/31 00:11:42;;;;;;;;;;;;;;;19.01;60.75;101772.72;5032982;28;1910;-45
2021/10/31 00:14:08;;;;;;;;;;;;;;;19.01;60.55;101767.34;5032611;28;1428;-45
2021/10/31 00:16:35;;;;;;;;;;;;;;;19.07;61.00;101760.69;5032691;28;1567;-45
2021/10/31 00:19:01;;;;;;;;;;;;;;;19.06;61.26;101759.00;5031720;28;1699;-45
2021/10/31 00:21:27;;;;;;;;;;;;;;;19.01;60.25;101772.72;5032495;28;1723;-44
2021/10/31 00:23:54;;;;;;;;;;;;;;;19.09;60.22;101764.09;5033771;28;1910;-45
2021/10/31 00:26:22;;;;;;;;;;;;;;;19.01;60.57;101756.63;5032633;28;2018;-45
2021/10/31 00:28:49;;;;;;;;;;;;;;;19.06;60.00;101765.19;5032445;28;1647;-45
2021/10/31 00:31:15;;;;;;;;;;;;;;;19.05;60.62;101784.91;5032582;28;1596;-45
2021/10/31 00:33:42;;;;;;;;;;;;;;;19.03;60.90;101767.25;5032638;28;1592;-45
2021/10/31 00:36:08;;;;;;;;;;;;;;;19.03;61.06;101760.03;5031863;28;1555;-45
2021/10/31 00:38:35;;;;;;;;;;;;;;;19.01;60.68;101777.22;5032379;28;1055;-44
2021/10/31 00:41:01;;;;;;;;;;;;;;;19.02;60.39;101779.78;5032647;28;1778;-45
2021/10/31 00:43:29;;;;;;;;;;;;;;;18.98;60.03;101769.38;5031877;28;1741;-45
2021/10/31 00:45:55;;;;;;;;;;;;;;;19.00;60.08;101765.66;5032332;28;1942;-45
2021/10/31 00:48:22;;;;;;;;;;;;;;;19.04;59.81;101783.22;5023885;28;1596;-44
2021/10/31 00:50:50;;;;;;;;;;;;;;;19.03;60.62;101776.13;5032534;28;1565;-45
2021/10/31 00:53:17;;;;;;;;;;;;;;;19.04;60.29;101788.59;5033243;28;1076;-44
2021/10/31 00:55:43;;;;;;;;;;;;;;;19.02;59.72;101790.50;5032297;28;2004;-45
2021/10/31 00:58:12;;;;;;;;;;;;;;;18.95;60.08;101762.44;5032106;28;1710;-45
2021/10/31 01:00:40;;;;;;;;;;;;;;;18.98;59.84;101783.66;5031964;28;1484;-45
2021/10/31 01:03:06;;;;;;;;;;;;;;;19.00;60.80;101776.38;5031568;28;1586;-45
2021/10/31 01:05:35;;;;;;;;;;;;;;;19.00;60.52;101779.06;5031725;28;1979;-45
2021/10/31 01:08:14;;;;;;;;;;;;;;;19.04;59.95;101779.69;5032888;28;1447;-45
2021/10/31 01:10:49;;;;;;;;;;;;;;;19.01;60.64;101785.25;5031983;28;1931;-45
2021/10/31 01:13:24;;;;;;;;;;;;;;;19.01;59.71;101787.94;5032084;28;2059;-45
2021/10/31 01:15:57;;;;;;;;;;;;;;;19.00;60.49;101768.31;5030250;28;1807;-46
2021/10/31 01:18:40;;;;;;;;;;;;;;;19.01;60.48;101775.38;5030296;28;1625;-47
2021/10/31 01:21:13;;;;;;;;;;;;;;;18.99;60.37;101780.00;5030693;28;1874;-45
2021/10/31 01:23:55;;;;;;;;;;;;;;;18.99;60.41;101781.84;5032634;28;1054;-45
2021/10/31 01:26:28;;;;;;;;;;;;;;;19.02;59.52;101769.06;5027322;28;2300;-44
2021/10/31 01:29:07;;;;;;;;;;;;;;;19.00;60.30;101776.38;5032340;28;1916;-44
2021/10/31 01:31:40;;;;;;;;;;;;;;;18.96;59.94;101780.25;5032302;28;1839;-44
2021/10/31 01:34:15;;;;;;;;;;;;;;;18.91;59.99;101760.94;5033747;28;1605;-45
2021/10/31 01:36:44;;;;;;;;;;;;;;;18.96;59.60;101779.34;5036150;28;1692;-45
2021/10/31 01:39:15;;;;;;;;;;;;;;;18.90;60.45;101761.94;5036771;28;1618;-45
2021/10/31 01:41:45;;;;;;;;;;;;;;;18.91;60.72;101777.03;5035579;28;1977;-45
2021/10/31 01:44:16;;;;;;;;;;;;;;;18.97;59.67;101770.38;5035601;28;1892;-45
2021/10/31 01:46:47;;;;;;;;;;;;;;;18.90;60.71;101761.03;5035537;28;2056;-45
2021/10/31 01:49:17;;;;;;;;;;;;;;;18.87;60.22;101751.41;5035031;28;1672;-46
2021/10/31 01:51:47;;;;;;;;;;;;;;;18.93;59.81;101759.00;5034817;28;1576;-45
2021/10/31 01:54:16;;;;;;;;;;;;;;;18.95;59.66;101762.44;5036242;28;1523;-45
2021/10/31 01:56:44;;;;;;;;;;;;;;;18.93;60.23;101747.44;5035562;28;1926;-45
2021/10/31 01:59:15;;;;;;;;;;;;;;;18.95;59.81;101751.72;5035349;28;1747;-44
2021/10/31 02:01:42;;;;;;;;;;;;;;;18.96;59.53;101753.44;5035755;28;1811;-44
2021/10/31 02:04:12;;;;;;;;;;;;;;;19.06;60.23;101743.75;5034519;28;1574;-45
2021/10/31 02:06:41;;;;;;;;;;;;;;;19.60;59.50;101758.53;5031455;28;1972;-45
2021/10/31 02:09:09;;;;;;;;;;;;;;;19.85;58.09;101762.91;5036594;28;1066;-44
2021/10/31 02:11:37;;;;;;;;;;;;;;;20.18;57.51;101766.69;5035269;28;2247;-44
2021/10/31 02:14:05;;;;;;;;;;;;;;;20.13;58.21;101738.47;5035183;28;1774;-44
2021/10/31 02:16:34;;;;;;;;;;;;;;;19.93;58.63;101764.19;5026314;28;1738;-44
2021/10/31 02:19:04;;;;;;;;;;;;;;;19.63;59.39;101752.09;5034753;28;1686;-45
2021/10/31 02:21:33;;;;;;;;;;;;;;;19.79;59.82;101766.06;5034895;28;1749;-45
2021/10/31 02:24:01;;;;;;;;;;;;;;;19.85;59.04;101752.19;5031744;28;1058;-44
2021/10/31 02:26:28;;;;;;;;;;;;;;;19.71;59.41;101760.44;5035084;28;1981;-44
2021/10/31 02:28:55;;;;;;;;;;;;;;;19.57;59.89;101750.72;5035078;28;1627;-44
2021/10/31 02:31:22;;;;;;;;;;;;;;;19.68;59.37;101764.19;5035123;28;1941;-44
2021/10/31 02:33:48;;;;;;;;;;;;;;;19.82;59.62;101748.91;5034579;28;2013;-44
2021/10/31 02:36:15;;;;;;;;;;;;;;;19.69;60.23;101751.63;5034622;28;1809;-44
2021/10/31 02:38:41;;;;;;;;;;;;;;;19.54;60.50;101758.16;5036528;28;1137;-44
2021/10/31 02:41:09;;;;;;;;;;;;;;;19.74;59.32;101760.22;5034661;28;2090;-44
2021/10/31 02:43:36;;;;;;;;;;;;;;;19.90;58.71;101756.38;5035065;28;1939;-44
2021/10/31 02:46:02;;;;;;;;;;;;;;;19.80;59.86;101759.75;5034015;28;1930;-45
2021/10/31 02:48:29;;;;;;;;;;;;;;;19.63;60.39;101744.03;5034512;28;1868;-44
2021/10/31 02:50:58;;;;;;;;;;;;;;;19.68;59.25;101733.81;5034635;28;1780;-45
2021/10/31 02:53:29;;;;;;;;;;;;;;;19.71;61.07;101738.09;5035509;28;1079;-44
2021/10/31 02:55:59;;;;;;;;;;;;;;;19.62;59.35;101728.91;5034516;28;2160;-44
2021/10/31 02:58:31;;;;;;;;;;;;;;;19.60;60.36;101739.75;5034322;28;1775;-44
2021/10/31 03:01:23;;;;;;;;;;;;;;;19.65;59.86;101716.09;5130745;22;3661;-45
2021/10/31 03:03:51;;;;;;;;;;;;;;;19.80;59.11;101735.59;4972280;28;1724;-44
2021/10/31 03:06:20;;;;;;;;;;;;;;;19.77;59.50;101756.44;4973402;28;1983;-43
2021/10/31 03:08:46;;;;;;;;;;;;;;;19.61;58.97;101732.56;4974450;28;1534;-44
2021/10/31 03:11:13;;;;;;;;;;;;;;;19.80;59.96;101754.38;4974170;28;1778;-43
2021/10/31 03:13:41;;;;;;;;;;;;;;;19.75;59.04;101745.81;4973658;28;1556;-43
2021/10/31 03:16:08;;;;;;;;;;;;;;;19.62;59.91;101735.13;4973248;28;1512;-44
2021/10/31 03:18:35;;;;;;;;;;;;;;;19.64;60.26;101743.06;4974394;28;1766;-43
2021/10/31 03:21:01;;;;;;;;;;;;;;;19.69;59.67;101735.50;4972933;28;1568;-43
2021/10/31 03:23:28;;;;;;;;;;;;;;;19.76;59.18;101739.50;4974975;28;1090;-44
2021/10/31 03:25:58;;;;;;;;;;;;;;;19.68;60.08;101734.66;4978545;28;1902;-44
2021/10/31 03:28:28;;;;;;;;;;;;;;;19.61;59.22;101728.03;4984281;28;2349;-43
2021/10/31 03:31:05;;;;;;;;;;;;;;;19.74;59.89;101722.66;4973666;28;1705;-43
2021/10/31 03:33:35;;;;;;;;;;;;;;;19.75;59.85;101744.97;4966677;28;1774;-43
2021/10/31 03:36:05;;;;;;;;;;;;;;;19.60;59.05;101731.72;4973892;28;1661;-43
2021/10/31 03:38:33;;;;;;;;;;;;;;;19.65;59.33;101734.03;4974368;28;1412;-44
2021/10/31 03:41:03;;;;;;;;;;;;;;;19.84;59.55;101741.59;4973733;28;2032;-43
2021/10/31 03:43:29;;;;;;;;;;;;;;;19.74;59.84;101749.47;4973911;28;1341;-43
2021/10/31 03:45:58;;;;;;;;;;;;;;;19.70;59.73;101747.13;4974099;28;1954;-43
2021/10/31 03:48:35;;;;;;;;;;;;;;;19.83;59.32;101743.41;4961293;28;1782;-44
2021/10/31 03:51:10;;;;;;;;;;;;;;;19.70;58.94;101720.28;4973736;28;1981;-43
2021/10/31 03:53:39;;;;;;;;;;;;;;;19.59;59.59;101729.13;4974728;28;1512;-44
2021/10/31 03:56:14;;;;;;;;;;;;;;;19.76;58.64;101735.97;4973490;28;1638;-43
2021/10/31 03:58:44;;;;;;;;;;;;;;;19.86;58.21;101731.59;4973521;28;1676;-43
2021/10/31 04:01:21;;;;;;;;;;;;;;;19.75;59.78;101727.03;4987758;28;1556;-44
2021/10/31 04:03:48;;;;;;;;;;;;;;;19.66;59.57;101720.50;5013014;28;1896;-43
2021/10/31 04:06:18;;;;;;;;;;;;;;;19.62;60.08;101726.25;5012213;28;1902;-43
2021/10/31 04:08:47;;;;;;;;;;;;;;;19.59;60.65;101716.56;5012251;28;1613;-43
2021/10/31 04:11:14;;;;;;;;;;;;;;;19.36;60.81;101723.69;5012596;28;2037;-43
2021/10/31 04:13:41;;;;;;;;;;;;;;;19.21;61.02;101708.72;5012476;28;1804;-44
2021/10/31 04:16:11;;;;;;;;;;;;;;;19.44;60.63;101723.13;5012461;28;1754;-44
2021/10/31 04:18:54;;;;;;;;;;;;;;;19.43;61.48;101713.34;5012056;28;1479;-43
2021/10/31 04:21:25;;;;;;;;;;;;;;;19.22;61.95;101710.44;5012357;28;1615;-44
2021/10/31 04:23:55;;;;;;;;;;;;;;;19.27;61.53;101711.78;5011691;28;1050;-44
2021/10/31 04:26:22;;;;;;;;;;;;;;;19.48;61.46;101722.75;5011817;28;1971;-43
2021/10/31 04:31:29;;;;;;;;;;;;;;;19.36;62.64;101710.28;5004768;28;2453;-43
2021/10/31 04:34:00;;;;;;;;;;;;;;;19.28;62.30;101701.94;5011125;28;1727;-43
2021/10/31 04:36:29;;;;;;;;;;;;;;;19.58;62.20;101703.28;5011304;28;1871;-44
2021/10/31 04:38:56;;;;;;;;;;;;;;;19.67;62.06;101692.69;5009992;28;2938;-44
2021/10/31 04:41:23;;;;;;;;;;;;;;;19.53;62.96;101710.81;5010667;28;1689;-43
2021/10/31 04:43:50;;;;;;;;;;;;;;;19.57;62.23;101688.16;4964034;28;10625;-44
2021/10/31 04:46:20;;;;;;;;;;;;;;;19.75;62.20;101681.41;5011544;28;1971;-44
2021/10/31 04:48:46;;;;;;;;;;;;;;;19.77;62.93;101694.72;5014153;28;10743;-44
2021/10/31 04:51:21;;;;;;;;;;;;;;;19.54;63.47;101699.13;4984092;28;2238;-43
2021/10/31 04:53:50;;;;;;;;;;;;;;;19.63;62.80;101701.09;5012175;28;1707;-43
2021/10/31 04:56:22;;;;;;;;;;;;;;;19.89;62.75;101691.06;5023867;28;1605;-41
2021/10/31 04:58:57;;;;;;;;;;;;;;;19.76;62.01;101706.44;5019076;28;1995;-43
2021/10/31 05:01:27;;;;;;;;;;;;;;;19.65;64.19;101685.75;5015861;28;2028;-44
2021/10/31 05:03:57;;;;;;;;;;;;;;;19.85;62.01;101706.56;5020414;28;1382;-43
2021/10/31 05:06:29;;;;;;;;;;;;;;;19.90;63.31;101683.91;5016303;28;1972;-44
2021/10/31 05:09:00;;;;;;;;;;;;;;;19.82;62.56;101692.53;5015479;28;1677;-43
2021/10/31 05:11:28;;;;;;;;;;;;;;;19.68;63.81;101698.94;5015841;28;2019;-44
2021/10/31 05:13:58;;;;;;;;;;;;;;;19.89;62.86;101709.00;5016285;28;1720;-41
2021/10/31 05:16:24;;;;;;;;;;;;;;;19.88;62.52;101686.69;5029314;28;1345;-44
2021/10/31 05:18:51;;;;;;;;;;;;;;;19.68;63.06;101691.72;5025362;28;1831;-43
2021/10/31 05:21:17;;;;;;;;;;;;;;;19.56;63.93;101698.03;5003559;28;10824;-43
2021/10/31 05:23:45;;;;;;;;;;;;;;;19.83;62.91;101686.19;5031957;28;1231;-44
2021/10/31 05:26:12;;;;;;;;;;;;;;;19.77;62.87;101700.94;5014506;28;2063;-44
2021/10/31 05:28:38;;;;;;;;;;;;;;;19.54;64.61;101693.78;5014851;28;1690;-44
2021/10/31 05:31:05;;;;;;;;;;;;;;;19.62;63.41;101697.56;5016860;28;1781;-43
2021/10/31 05:33:31;;;;;;;;;;;;;;;19.99;62.97;101710.00;5014929;28;1648;-44
2021/10/31 05:35:57;;;;;;;;;;;;;;;19.90;63.23;101683.91;5015117;28;1451;-44
2021/10/31 05:38:24;;;;;;;;;;;;;;;19.73;64.17;101691.41;5016980;28;1369;-44
2021/10/31 05:40:52;;;;;;;;;;;;;;;19.76;64.39;101688.50;5019469;28;1550;-44
2021/10/31 05:43:19;;;;;;;;;;;;;;;20.10;63.49;101688.56;5022258;28;1585;-44
2021/10/31 05:45:46;;;;;;;;;;;;;;;20.01;63.21;101714.28;5016907;28;1902;-45
2021/10/31 05:48:12;;;;;;;;;;;;;;;19.81;63.76;101707.75;5013768;28;1847;-44
2021/10/31 05:50:40;;;;;;;;;;;;;;;19.70;63.74;101683.56;5014453;28;1944;-44
2021/10/31 05:53:11;;;;;;;;;;;;;;;20.00;62.99;101701.00;5015228;28;1146;-45
2021/10/31 05:55:39;;;;;;;;;;;;;;;20.17;62.51;101695.13;5014555;28;1983;-44
2021/10/31 05:58:07;;;;;;;;;;;;;;;19.90;64.02;101684.75;5014441;28;1618;-45
2021/10/31 06:00:33;;;;;;;;;;;;;;;19.75;63.94;101708.25;5015479;28;1040;-44
2021/10/31 06:03:00;;;;;;;;;;;;;;;19.91;64.44;101688.28;5014154;28;1688;-44
2021/10/31 06:05:34;;;;;;;;;;;;;;;20.04;62.82;101714.06;5006977;28;1997;-44
2021/10/31 06:08:01;;;;;;;;;;;;;;;19.88;64.26;101696.59;5003067;28;1902;-46
2021/10/31 06:10:28;;;;;;;;;;;;;;;19.77;64.78;101705.44;5014105;28;2035;-50
2021/10/31 06:12:57;;;;;;;;;;;;;;;20.00;64.13;101701.00;5015134;28;1380;-41
2021/10/31 06:15:30;;;;;;;;;;;;;;;20.08;65.04;101681.59;5014128;28;10791;-40
2021/10/31 06:17:57;;;;;;;;;;;;;;;19.82;66.15;101688.03;5008148;28;2416;-43
2021/10/31 06:20:24;;;;;;;;;;;;;;;19.67;65.44;101710.63;5019666;28;1552;-41
2021/10/31 06:22:52;;;;;;;;;;;;;;;19.96;64.83;101715.63;5016627;28;1377;-45
2021/10/31 06:25:19;;;;;;;;;;;;;;;20.17;64.40;101705.88;5016265;28;1599;-44
2021/10/31 06:27:47;;;;;;;;;;;;;;;20.05;65.54;101706.84;5021084;28;1906;-44
2021/10/31 06:30:17;;;;;;;;;;;;;;;19.85;65.98;101703.88;5013753;28;1494;-45
2021/10/31 06:32:49;;;;;;;;;;;;;;;19.95;66.30;101714.75;5021882;28;1794;-45
2021/10/31 06:35:16;;;;;;;;;;;;;;;20.03;65.15;101706.09;5010540;28;1885;-46
2021/10/31 06:37:44;;;;;;;;;;;;;;;19.92;65.62;101715.00;5020261;28;1364;-45
2021/10/31 06:40:15;;;;;;;;;;;;;;;19.86;65.62;101713.66;5020288;28;1665;-42
2021/10/31 06:42:42;;;;;;;;;;;;;;;19.98;64.67;101724.44;5011176;28;2000;-47
2021/10/31 06:45:09;;;;;;;;;;;;;;;20.00;64.90;101712.59;5013953;28;1605;-44
2021/10/31 06:47:37;;;;;;;;;;;;;;;19.89;64.96;101717.06;5018897;28;1899;-45
2021/10/31 06:50:08;;;;;;;;;;;;;;;19.81;65.62;101713.13;5030173;28;1091;-45
2021/10/31 06:55:16;;;;;;;;;;;;;;;20.25;63.62;101727.66;5017774;28;2014;-43
2021/10/31 06:57:44;;;;;;;;;;;;;;;20.07;65.33;101729.06;5013476;28;1735;-46
2021/10/31 07:00:11;;;;;;;;;;;;;;;19.93;65.69;101718.53;5013670;28;1558;-43
2021/10/31 07:02:40;;;;;;;;;;;;;;;20.15;65.16;101726.63;5017847;28;1522;-46
2021/10/31 07:05:21;;;;;;;;;;;;;;;20.17;64.97;101735.41;4997688;28;1120;-45
2021/10/31 07:08:01;;;;;;;;;;;;;;;20.10;65.49;101733.38;5016144;28;1914;-45
2021/10/31 07:10:29;;;;;;;;;;;;;;;19.83;66.84;101716.56;5019182;28;1905;-44
2021/10/31 07:12:56;;;;;;;;;;;;;;;20.08;66.62;101738.00;5016737;28;1249;-44
2021/10/31 07:15:23;;;;;;;;;;;;;;;20.29;64.66;101736.28;5011469;28;1563;-45
2021/10/31 07:17:52;;;;;;;;;;;;;;;20.10;65.21;101728.00;5013032;28;1745;-44
2021/10/31 07:20:19;;;;;;;;;;;;;;;19.92;66.32;101704.28;5010919;28;1740;-43
2021/10/31 07:22:49;;;;;;;;;;;;;;;20.23;66.46;101710.78;5012640;28;2713;-46
2021/10/31 07:25:19;;;;;;;;;;;;;;;20.25;65.76;101733.03;5022999;28;1517;-45
2021/10/31 07:27:46;;;;;;;;;;;;;;;19.97;66.45;101711.97;5011797;28;1914;-45
2021/10/31 07:30:13;;;;;;;;;;;;;;;19.74;67.18;101733.38;5011476;28;1356;-44
2021/10/31 07:32:40;;;;;;;;;;;;;;;19.85;67.14;101714.59;5012148;28;1803;-44
2021/10/31 07:35:07;;;;;;;;;;;;;;;20.04;66.08;101732.00;5012974;28;1411;-44
2021/10/31 07:37:33;;;;;;;;;;;;;;;19.76;67.22;101709.97;5012404;28;1960;-44
2021/10/31 07:40:01;;;;;;;;;;;;;;;19.55;66.51;101708.88;5012247;28;1623;-44
2021/10/31 07:42:37;;;;;;;;;;;;;;;19.85;66.78;101693.13;5012958;28;1997;-44
2021/10/31 07:45:28;;;;;;;;;;;;;;;19.96;66.60;101712.94;5012189;28;1368;-44
2021/10/31 07:47:55;;;;;;;;;;;;;;;19.62;66.44;101708.31;5011189;28;1914;-44
2021/10/31 07:50:22;;;;;;;;;;;;;;;19.70;66.40;101705.03;5010796;28;1788;-44
2021/10/31 07:52:52;;;;;;;;;;;;;;;19.77;64.51;101708.97;5012090;28;1605;-44
2021/10/31 07:55:20;;;;;;;;;;;;;;;20.00;63.41;101717.94;5012812;28;1936;-44
2021/10/31 07:58:00;;;;;;;;;;;;;;;20.00;63.33;101691.09;5012151;28;1562;-44
2021/10/31 08:03:18;;;;;;;;;;;;;;;20.22;62.93;101689.44;5011030;28;2341;-44
2021/10/31 08:05:48;;;;;;;;;;;;;;;19.80;64.15;101676.56;5011253;28;1612;-44
2021/10/31 08:08:17;;;;;;;;;;;;;;;19.75;64.91;101681.41;5012471;28;1947;-44
2021/10/31 08:10:44;;;;;;;;;;;;;;;19.96;63.04;101696.84;5012106;28;1743;-44
2021/10/31 08:13:23;;;;;;;;;;;;;;;19.94;63.96;101666.56;5012257;28;1523;-44
2021/10/31 08:15:52;;;;;;;;;;;;;;;19.69;63.87;101671.13;5009436;28;1786;-45
2021/10/31 08:18:22;;;;;;;;;;;;;;;19.76;63.80;101680.44;5011270;28;1506;-45
2021/10/31 08:20:50;;;;;;;;;;;;;;;19.97;62.90;101685.13;5010230;28;1680;-45
2021/10/31 08:23:17;;;;;;;;;;;;;;;19.79;64.38;101672.13;5010920;28;1854;-45
2021/10/31 08:25:46;;;;;;;;;;;;;;;19.63;64.89;101676.94;5011445;28;1703;-44
2021/10/31 08:28:15;;;;;;;;;;;;;;;19.68;64.03;101686.38;5011261;28;1930;-45
2021/10/31 08:30:56;;;;;;;;;;;;;;;19.85;64.42;101674.34;5009799;28;1719;-45
2021/10/31 08:33:27;;;;;;;;;;;;;;;19.73;63.30;101691.41;5008935;28;1723;-46
2021/10/31 08:35:54;;;;;;;;;;;;;;;19.51;64.60;101668.00;5010719;28;1799;-44
2021/10/31 08:38:20;;;;;;;;;;;;;;;19.72;63.94;101676.28;5009806;28;1519;-45
2021/10/31 08:40:48;;;;;;;;;;;;;;;19.79;64.17;101682.03;5008636;28;1672;-45
2021/10/31 08:43:14;;;;;;;;;;;;;;;19.71;64.04;101690.66;5008832;28;1610;-44
2021/10/31 08:45:41;;;;;;;;;;;;;;;19.54;65.60;101662.41;5010333;28;1843;-44
2021/10/31 08:48:09;;;;;;;;;;;;;;;19.81;64.65;101666.66;5010940;28;1902;-44
2021/10/31 08:50:35;;;;;;;;;;;;;;;19.73;65.44;101672.63;5011257;28;1699;-44
2021/10/31 08:53:02;;;;;;;;;;;;;;;19.68;65.34;101653.31;5010482;28;1493;-45
2021/10/31 08:55:28;;;;;;;;;;;;;;;19.74;65.31;101657.38;5014414;28;1837;-46
2021/10/31 08:57:55;;;;;;;;;;;;;;;19.83;64.56;101653.97;5012894;28;1406;-47
2021/10/31 09:00:21;;;;;;;;;;;;;;;19.70;64.86;101651.38;5018809;28;1559;-45
2021/10/31 09:02:48;;;;;;;;;;;;;;;19.63;64.94;101660.84;5010720;28;1620;-44
2021/10/31 09:05:15;;;;;;;;;;;;;;;19.61;65.68;101668.16;5011872;28;1765;-46
2021/10/31 09:07:42;;;;;;;;;;;;;;;19.79;65.18;101682.03;5012082;28;1985;-44
2021/10/31 09:10:09;;;;;;;;;;;;;;;19.77;64.92;101662.50;5011433;28;1839;-44
2021/10/31 09:12:35;;;;;;;;;;;;;;;19.70;66.12;101654.06;5011588;28;1515;-44
2021/10/31 09:15:01;;;;;;;;;;;;;;;19.79;65.75;101653.34;5009587;28;1403;-46
2021/10/31 09:17:28;;;;;;;;;;;;;;;19.81;65.42;101664.81;5011322;28;1676;-44
2021/10/31 09:19:54;;;;;;;;;;;;;;;19.70;66.36;101653.22;5009864;28;1723;-44
2021/10/31 09:22:22;;;;;;;;;;;;;;;19.73;66.34;101643.09;5011457;28;1889;-44
2021/10/31 09:24:50;;;;;;;;;;;;;;;19.86;65.90;101641.19;5011141;28;1658;-44
2021/10/31 09:27:17;;;;;;;;;;;;;;;19.87;66.11;101652.75;5009321;28;1972;-45
2021/10/31 09:29:43;;;;;;;;;;;;;;;19.93;66.27;101654.97;5010740;28;1438;-48
2021/10/31 09:32:10;;;;;;;;;;;;;;;19.70;65.63;101642.47;5009690;28;1589;-49
2021/10/31 09:34:36;;;;;;;;;;;;;;;19.66;66.19;101639.16;5011512;28;1650;-47
2021/10/31 09:37:03;;;;;;;;;;;;;;;19.65;66.81;101642.81;5011719;28;1727;-49
2021/10/31 09:39:32;;;;;;;;;;;;;;;19.61;66.33;101646.69;5012515;28;1655;-50
2021/10/31 09:41:59;;;;;;;;;;;;;;;19.56;66.99;101625.59;5011319;28;1899;-49
2021/10/31 09:44:29;;;;;;;;;;;;;;;19.64;66.19;101639.28;5010748;28;1679;-51
2021/10/31 09:46:55;;;;;;;;;;;;;;;19.66;66.83;101639.16;5011838;28;1906;-50
2021/10/31 09:49:22;;;;;;;;;;;;;;;19.68;66.64;101632.69;5010639;28;1586;-51
2021/10/31 09:51:50;;;;;;;;;;;;;;;19.64;66.77;101625.00;5011398;28;1819;-50
2021/10/31 09:54:17;;;;;;;;;;;;;;;19.68;66.02;101639.91;5012686;28;1015;-51
2021/10/31 09:56:45;;;;;;;;;;;;;;;19.68;66.59;101632.69;5015413;28;1952;-51
2021/10/31 09:59:12;;;;;;;;;;;;;;;19.68;66.02;101605.88;5014367;28;1771;-50
2021/10/31 10:01:51;;;;;;;;;;;;;;;19.65;65.97;101622.19;5015040;28;1751;-51
2021/10/31 10:04:28;;;;;;;;;;;;;;;19.70;67.17;101611.13;5014365;28;1834;-51
2021/10/31 10:06:55;;;;;;;;;;;;;;;19.64;67.38;101588.28;5014953;28;1601;-51
2021/10/31 10:09:22;;;;;;;;;;;;;;;19.72;67.36;101605.66;5015720;28;1693;-52
2021/10/31 10:11:50;;;;;;;;;;;;;;;19.68;67.24;101583.53;5021254;28;1579;-51
2021/10/31 10:14:23;;;;;;;;;;;;;;;19.69;67.24;101595.97;5019789;28;1758;-51
2021/10/31 10:16:50;;;;;;;;;;;;;;;19.73;67.46;101597.47;5017348;28;1834;-49
2021/10/31 10:19:18;;;;;;;;;;;;;;;-145.56;100.00;59612.91;5013161;28;1670;-47
2021/10/31 10:21:51;;;;;;;;;;;;;;;-145.56;100.00;59612.91;5011281;28;1661;-48
2021/10/31 10:24:19;;;;;;;;;;;;;;;-145.56;100.00;59612.91;5010724;28;1717;-47
2021/10/31 10:26:46;;;;;;;;;;;;;;;-145.56;100.00;59612.91;5010573;28;1750;-48
2021/10/31 10:29:15;;;;;;;;;;;;;;;-145.56;100.00;59612.91;5010360;28;1977;-47
2021/10/31 10:31:41;;;;;;;;;;;;;;;-145.56;100.00;59612.91;5013478;28;1658;-47
2021/10/31 10:34:08;;;;;;;;;;;;;;;-145.56;100.00;59612.91;5014861;28;1692;-48
2021/10/31 10:36:39;;;;;;;;;;;;;;;-145.56;100.00;59612.91;5015289;28;1762;-47
2021/10/31 10:39:07;;;;;;;;;;;;;;;-145.56;100.00;59612.91;5007924;28;1047;-47
2021/10/31 10:41:37;;;;;;;;;;;;;;;-145.56;100.00;59612.91;5015180;28;1711;-48
2021/10/31 10:44:15;;;;;;;;;;;;;;;-145.56;100.00;59612.91;5015414;28;1784;-48
2021/10/31 10:46:42;;;;;;;;;;;;;;;-145.56;100.00;59612.91;5015115;28;1821;-48
2021/10/31 10:49:09;;;;;;;;;;;;;;;-145.56;100.00;59612.91;5014783;28;1975;-48
2021/10/31 10:51:36;;;;;;;;;;;;;;;-145.56;100.00;59612.91;5014504;28;1710;-46
2021/10/31 10:54:09;;;;;;;;;;;;;;;-145.56;100.00;59612.91;5026697;28;1810;-47
2021/10/31 10:56:35;;;;;;;;;;;;;;;-145.56;100.00;59612.91;5013906;28;1694;-47
2021/10/31 10:59:02;;;;;;;;;;;;;;;-145.56;100.00;59612.91;5016631;28;1628;-47
2021/10/31 11:01:29;;;;;;;;;;;;;;;-145.56;100.00;59612.91;5014343;28;1762;-46
2021/10/31 11:03:56;;;;;;;;;;;;;;;-145.56;100.00;59612.91;5014318;28;1785;-46
2021/10/31 11:06:27;;;;;;;;;;;;;;;-145.56;100.00;59612.91;5013852;28;1592;-45
2021/10/31 11:09:12;;;;;;;;;;;;;;;-145.56;100.00;59612.91;5015075;28;1973;-47
2021/10/31 11:11:39;;;;;;;;;;;;;;;-145.56;100.00;59612.91;5014367;28;1706;-46
2021/10/31 11:14:05;;;;;;;;;;;;;;;-145.56;100.00;59612.91;5013990;28;1645;-47
2021/10/31 11:16:33;;;;;;;;;;;;;;;-145.56;100.00;59612.91;5013909;28;1574;-48
2021/10/31 11:19:01;;;;;;;;;;;;;;;-145.56;100.00;59612.91;5018212;28;1323;-47
2021/10/31 11:21:27;;;;;;;;;;;;;;;-145.56;100.00;59612.91;5018047;28;1528;-47
2021/10/31 11:23:56;;;;;;;;;;;;;;;-145.56;100.00;59612.91;5014766;28;1679;-47
2021/10/31 11:26:25;;;;;;;;;;;;;;;-145.56;100.00;59612.91;5015398;28;1958;-47
2021/10/31 11:28:51;;;;;;;;;;;;;;;-145.56;100.00;59612.91;5014173;28;1985;-47
2021/10/31 11:31:18;;;;;;;;;;;;;;;-145.56;100.00;59612.91;5015154;28;1805;-47
2021/10/31 11:33:46;;;;;;;;;;;;;;;-145.56;100.00;59612.91;5016818;28;2032;-47
2021/10/31 11:36:14;;;;;;;;;;;;;;;-145.56;100.00;59612.91;5014082;28;1925;-47
2021/10/31 11:38:42;;;;;;;;;;;;;;;-145.56;100.00;59612.91;5016589;28;1709;-48
2021/10/31 11:41:10;;;;;;;;;;;;;;;-145.56;100.00;59612.91;5019493;28;2088;-47
2021/10/31 11:43:41;;;;;;;;;;;;;;;-145.56;100.00;59612.91;5013199;28;2031;-47
2021/10/31 11:46:09;;;;;;;;;;;;;;;-145.56;100.00;59612.91;5015101;28;1715;-47
2021/10/31 11:48:36;;;;;;;;;;;;;;;-145.56;100.00;59612.91;5013702;28;1902;-47
2021/10/31 11:51:09;;;;;;;;;;;;;;;-145.56;100.00;59612.91;5014166;28;1429;-48
2021/10/31 11:53:36;;;;;;;;;;;;;;;-145.56;100.00;59612.91;5019915;28;1545;-49
2021/10/31 11:56:05;;;;;;;;;;;;;;;-145.56;100.00;59612.91;5012029;28;1955;-49
2021/10/31 11:58:43;;;;;;;;;;;;;;;-145.56;100.00;59612.91;5012860;28;1837;-49
2021/10/31 12:01:15;;;;;;;;;;;;;;;-145.56;100.00;59612.91;5013779;28;1799;-48
2021/10/31 12:03:42;;;;;;;;;;;;;;;-145.56;100.00;59612.91;5013591;28;1895;-48
2021/10/31 12:06:23;;;;;;;;;;;;;;;-145.56;100.00;59612.91;5013785;28;2027;-48
2021/10/31 12:08:53;;;;;;;;;;;;;;;-145.56;100.00;59612.91;5006456;28;2255;-48
2021/10/31 12:11:20;;;;;;;;;;;;;;;-145.56;100.00;59612.91;5013849;28;3087;-48
2021/10/31 12:13:48;;;;;;;;;;;;;;;-145.56;100.00;59612.91;5012722;28;1555;-48
2021/10/31 12:16:15;;;;;;;;;;;;;;;-145.56;100.00;59612.91;5013404;28;1808;-48
2021/10/31 12:18:42;;;;;;;;;;;;;;;-145.56;100.00;59612.91;5013638;28;1016;-48
2021/10/31 12:21:18;;;;;;;;;;;;;;;-145.56;100.00;59612.91;5013251;28;1499;-49
2021/10/31 12:23:53;;;;;;;;;;;;;;;-145.56;100.00;59612.91;5012982;28;1820;-48
2021/10/31 12:26:21;;;;;;;;;;;;;;;-145.56;100.00;59612.91;5013253;28;1766;-48
2021/10/31 12:28:48;;;;;;;;;;;;;;;-145.56;100.00;59612.91;5012932;28;1938;-48
2021/10/31 12:31:31;;;;;;;;;;;;;;;-145.56;100.00;59612.91;5012840;28;1691;-48
2021/10/31 12:34:07;;;;;;;;;;;;;;;-145.56;100.00;59612.91;5006759;28;1760;-49
2021/10/31 12:36:34;;;;;;;;;;;;;;;-145.56;100.00;59612.91;5013061;28;2067;-48
2021/10/31 12:39:04;;;;;;;;;;;;;;;-145.56;100.00;59612.91;5005215;28;1119;-48
2021/10/31 12:41:34;;;;;;;;;;;;;;;-145.56;100.00;59612.91;5013109;28;1686;-48
2021/10/31 12:44:09;;;;;;;;;;;;;;;-145.56;100.00;59612.91;5012238;28;1603;-48
2021/10/31 12:46:36;;;;;;;;;;;;;;;-145.56;100.00;59612.91;5013076;28;1692;-50
2021/10/31 12:49:03;;;;;;;;;;;;;;;-145.56;100.00;59612.91;5012935;28;1906;-48
2021/10/31 12:51:50;;;;;;;;;;;;;;;-145.56;100.00;59612.91;5012658;28;1760;-48
2021/10/31 12:54:22;;;;;;;;;;;;;;;-145.56;100.00;59612.91;5013596;28;1091;-48
2021/10/31 12:56:50;;;;;;;;;;;;;;;-145.56;100.00;59612.91;5013010;28;1952;-49
2021/10/31 12:59:17;;;;;;;;;;;;;;;-145.56;100.00;59612.91;5012631;28;1979;-48
2021/10/31 13:01:44;;;;;;;;;;;;;;;-145.56;100.00;59612.91;5012731;28;1760;-49